sensor_id;sensor_type;location;lat;lon;timestamp;P1;durP1;ratioP1;P2;durP2;ratioP2
70927;SDS011;58587;53.034;18.576;2023-03-19T00:02:00;91.80;;;37.23;;
70927;SDS011;58587;53.034;18.576;2023-03-19T00:04:26;87.53;;;37.13;;
70927;SDS011;58587;53.034;18.576;2023-03-19T00:06:52;87.95;;;37.10;;
70927;SDS011;58587;53.034;18.576;2023-03-19T00:09:17;90.20;;;36.53;;
70927;SDS011;58587;53.034;18.576;2023-03-19T00:11:44;88.13;;;36.50;;
70927;SDS011;58587;53.034;18.576;2023-03-19T00:14:10;82.80;;;34.85;;
70927;SDS011;58587;53.034;18.576;2023-03-19T00:16:35;83.93;;;34.83;;
70927;SDS011;58587;53.034;18.576;2023-03-19T00:19:01;85.80;;;33.67;;
70927;SDS011;58587;53.034;18.576;2023-03-19T00:21:28;74.53;;;30.83;;
70927;SDS011;58587;53.034;18.576;2023-03-19T00:23:53;74.60;;;29.88;;
70927;SDS011;58587;53.034;18.576;2023-03-19T00:26:23;67.57;;;27.20;;
70927;SDS011;58587;53.034;18.576;2023-03-19T00:28:49;62.20;;;28.10;;
70927;SDS011;58587;53.034;18.576;2023-03-19T00:31:15;62.97;;;27.70;;
70927;SDS011;58587;53.034;18.576;2023-03-19T00:33:41;64.07;;;26.50;;
70927;SDS011;58587;53.034;18.576;2023-03-19T00:36:07;63.97;;;25.97;;
70927;SDS011;58587;53.034;18.576;2023-03-19T00:38:34;59.85;;;25.95;;
70927;SDS011;58587;53.034;18.576;2023-03-19T00:41:00;57.83;;;25.60;;
70927;SDS011;58587;53.034;18.576;2023-03-19T00:43:25;59.43;;;25.20;;
70927;SDS011;58587;53.034;18.576;2023-03-19T00:45:51;60.83;;;24.15;;
70927;SDS011;58587;53.034;18.576;2023-03-19T00:48:16;53.47;;;24.93;;
70927;SDS011;58587;53.034;18.576;2023-03-19T00:50:42;56.13;;;24.60;;
70927;SDS011;58587;53.034;18.576;2023-03-19T00:53:08;58.22;;;25.15;;
70927;SDS011;58587;53.034;18.576;2023-03-19T00:55:33;51.55;;;23.88;;
70927;SDS011;58587;53.034;18.576;2023-03-19T00:58:02;57.40;;;24.40;;
70927;SDS011;58587;53.034;18.576;2023-03-19T01:00:27;53.38;;;23.83;;
70927;SDS011;58587;53.034;18.576;2023-03-19T01:02:53;59.80;;;24.70;;
70927;SDS011;58587;53.034;18.576;2023-03-19T01:05:18;59.87;;;24.60;;
70927;SDS011;58587;53.034;18.576;2023-03-19T01:07:44;56.97;;;25.60;;
70927;SDS011;58587;53.034;18.576;2023-03-19T01:10:09;60.50;;;25.27;;
70927;SDS011;58587;53.034;18.576;2023-03-19T01:12:35;63.00;;;26.17;;
70927;SDS011;58587;53.034;18.576;2023-03-19T01:15:00;63.60;;;28.03;;
70927;SDS011;58587;53.034;18.576;2023-03-19T01:17:26;59.53;;;25.90;;
70927;SDS011;58587;53.034;18.576;2023-03-19T01:19:52;64.45;;;27.75;;
70927;SDS011;58587;53.034;18.576;2023-03-19T01:22:17;66.10;;;29.17;;
70927;SDS011;58587;53.034;18.576;2023-03-19T01:24:43;70.47;;;28.60;;
70927;SDS011;58587;53.034;18.576;2023-03-19T01:27:08;69.80;;;29.37;;
70927;SDS011;58587;53.034;18.576;2023-03-19T01:29:34;72.07;;;30.33;;
70927;SDS011;58587;53.034;18.576;2023-03-19T01:32:00;70.43;;;28.95;;
70927;SDS011;58587;53.034;18.576;2023-03-19T01:34:26;59.88;;;26.33;;
70927;SDS011;58587;53.034;18.576;2023-03-19T01:36:51;55.27;;;23.50;;
70927;SDS011;58587;53.034;18.576;2023-03-19T01:39:20;48.83;;;21.45;;
70927;SDS011;58587;53.034;18.576;2023-03-19T01:41:45;51.70;;;22.27;;
70927;SDS011;58587;53.034;18.576;2023-03-19T01:44:23;45.58;;;20.10;;
70927;SDS011;58587;53.034;18.576;2023-03-19T01:46:51;43.30;;;19.50;;
70927;SDS011;58587;53.034;18.576;2023-03-19T01:49:17;45.92;;;19.45;;
70927;SDS011;58587;53.034;18.576;2023-03-19T01:51:45;45.40;;;19.23;;
70927;SDS011;58587;53.034;18.576;2023-03-19T01:54:16;41.03;;;17.67;;
70927;SDS011;58587;53.034;18.576;2023-03-19T01:56:45;46.30;;;18.60;;
70927;SDS011;58587;53.034;18.576;2023-03-19T01:59:14;42.23;;;19.03;;
70927;SDS011;58587;53.034;18.576;2023-03-19T02:01:46;43.03;;;18.00;;
70927;SDS011;58587;53.034;18.576;2023-03-19T02:04:18;44.85;;;19.30;;
70927;SDS011;58587;53.034;18.576;2023-03-19T02:06:44;42.47;;;19.08;;
70927;SDS011;58587;53.034;18.576;2023-03-19T02:09:10;38.17;;;18.10;;
70927;SDS011;58587;53.034;18.576;2023-03-19T02:11:38;43.15;;;18.85;;
70927;SDS011;58587;53.034;18.576;2023-03-19T02:14:03;40.80;;;18.57;;
70927;SDS011;58587;53.034;18.576;2023-03-19T02:16:28;44.78;;;18.05;;
70927;SDS011;58587;53.034;18.576;2023-03-19T02:18:54;42.03;;;18.20;;
70927;SDS011;58587;53.034;18.576;2023-03-19T02:21:20;38.17;;;17.63;;
70927;SDS011;58587;53.034;18.576;2023-03-19T02:24:20;40.72;;;17.83;;
70927;SDS011;58587;53.034;18.576;2023-03-19T02:26:41;40.80;;;17.77;;
70927;SDS011;58587;53.034;18.576;2023-03-19T02:29:08;41.15;;;18.27;;
70927;SDS011;58587;53.034;18.576;2023-03-19T02:31:34;44.93;;;18.07;;
70927;SDS011;58587;53.034;18.576;2023-03-19T02:36:30;43.50;;;19.05;;
70927;SDS011;58587;53.034;18.576;2023-03-19T02:39:02;40.42;;;18.95;;
70927;SDS011;58587;53.034;18.576;2023-03-19T02:41:29;36.53;;;17.23;;
70927;SDS011;58587;53.034;18.576;2023-03-19T02:43:56;46.63;;;19.00;;
70927;SDS011;58587;53.034;18.576;2023-03-19T02:46:23;39.90;;;18.27;;
70927;SDS011;58587;53.034;18.576;2023-03-19T02:48:49;42.83;;;18.13;;
70927;SDS011;58587;53.034;18.576;2023-03-19T02:51:14;43.87;;;19.27;;
70927;SDS011;58587;53.034;18.576;2023-03-19T02:53:40;46.63;;;19.10;;
70927;SDS011;58587;53.034;18.576;2023-03-19T02:56:05;42.03;;;18.60;;
70927;SDS011;58587;53.034;18.576;2023-03-19T02:58:31;41.17;;;18.10;;
70927;SDS011;58587;53.034;18.576;2023-03-19T03:00:56;38.27;;;18.60;;
70927;SDS011;58587;53.034;18.576;2023-03-19T03:03:21;43.28;;;18.35;;
70927;SDS011;58587;53.034;18.576;2023-03-19T03:05:47;42.17;;;18.88;;
70927;SDS011;58587;53.034;18.576;2023-03-19T03:08:12;43.33;;;18.80;;
70927;SDS011;58587;53.034;18.576;2023-03-19T03:10:37;50.77;;;19.67;;
70927;SDS011;58587;53.034;18.576;2023-03-19T03:13:03;49.87;;;20.47;;
70927;SDS011;58587;53.034;18.576;2023-03-19T03:15:29;46.00;;;20.45;;
70927;SDS011;58587;53.034;18.576;2023-03-19T03:17:55;44.67;;;19.03;;
70927;SDS011;58587;53.034;18.576;2023-03-19T03:20:20;41.35;;;18.77;;
70927;SDS011;58587;53.034;18.576;2023-03-19T03:22:46;48.17;;;20.10;;
70927;SDS011;58587;53.034;18.576;2023-03-19T03:25:12;42.25;;;19.15;;
70927;SDS011;58587;53.034;18.576;2023-03-19T03:27:38;40.15;;;18.00;;
70927;SDS011;58587;53.034;18.576;2023-03-19T03:30:04;38.37;;;18.47;;
70927;SDS011;58587;53.034;18.576;2023-03-19T03:32:32;35.92;;;17.42;;
70927;SDS011;58587;53.034;18.576;2023-03-19T03:34:57;40.43;;;18.20;;
70927;SDS011;58587;53.034;18.576;2023-03-19T03:37:22;39.00;;;18.30;;
70927;SDS011;58587;53.034;18.576;2023-03-19T03:39:48;37.40;;;17.37;;
70927;SDS011;58587;53.034;18.576;2023-03-19T03:42:13;48.40;;;19.27;;
70927;SDS011;58587;53.034;18.576;2023-03-19T03:44:38;40.73;;;18.27;;
70927;SDS011;58587;53.034;18.576;2023-03-19T03:47:04;47.97;;;19.67;;
70927;SDS011;58587;53.034;18.576;2023-03-19T03:49:29;46.60;;;19.48;;
70927;SDS011;58587;53.034;18.576;2023-03-19T03:51:54;41.97;;;19.80;;
70927;SDS011;58587;53.034;18.576;2023-03-19T03:54:20;44.73;;;19.47;;
70927;SDS011;58587;53.034;18.576;2023-03-19T03:56:45;45.77;;;20.03;;
70927;SDS011;58587;53.034;18.576;2023-03-19T03:59:10;49.25;;;22.08;;
70927;SDS011;58587;53.034;18.576;2023-03-19T04:01:36;46.10;;;21.10;;
70927;SDS011;58587;53.034;18.576;2023-03-19T04:04:01;51.07;;;21.50;;
70927;SDS011;58587;53.034;18.576;2023-03-19T04:06:27;47.58;;;21.92;;
70927;SDS011;58587;53.034;18.576;2023-03-19T04:08:53;48.60;;;21.23;;
70927;SDS011;58587;53.034;18.576;2023-03-19T04:11:18;48.90;;;23.20;;
70927;SDS011;58587;53.034;18.576;2023-03-19T04:13:44;46.53;;;20.45;;
70927;SDS011;58587;53.034;18.576;2023-03-19T04:16:10;46.17;;;19.90;;
70927;SDS011;58587;53.034;18.576;2023-03-19T04:18:36;43.45;;;19.90;;
70927;SDS011;58587;53.034;18.576;2023-03-19T04:21:05;44.72;;;20.52;;
70927;SDS011;58587;53.034;18.576;2023-03-19T04:23:31;43.83;;;19.67;;
70927;SDS011;58587;53.034;18.576;2023-03-19T04:25:57;42.05;;;19.80;;
70927;SDS011;58587;53.034;18.576;2023-03-19T04:28:24;39.55;;;19.20;;
70927;SDS011;58587;53.034;18.576;2023-03-19T04:30:49;45.83;;;20.00;;
70927;SDS011;58587;53.034;18.576;2023-03-19T04:33:15;46.40;;;21.00;;
70927;SDS011;58587;53.034;18.576;2023-03-19T04:35:41;48.28;;;20.42;;
70927;SDS011;58587;53.034;18.576;2023-03-19T04:38:06;55.17;;;24.07;;
70927;SDS011;58587;53.034;18.576;2023-03-19T04:40:32;50.37;;;21.37;;
70927;SDS011;58587;53.034;18.576;2023-03-19T04:42:57;49.27;;;21.87;;
70927;SDS011;58587;53.034;18.576;2023-03-19T04:45:22;49.23;;;21.63;;
70927;SDS011;58587;53.034;18.576;2023-03-19T04:47:48;45.13;;;20.77;;
70927;SDS011;58587;53.034;18.576;2023-03-19T04:50:13;45.67;;;20.50;;
70927;SDS011;58587;53.034;18.576;2023-03-19T04:52:39;45.90;;;21.00;;
70927;SDS011;58587;53.034;18.576;2023-03-19T04:55:05;51.58;;;22.30;;
70927;SDS011;58587;53.034;18.576;2023-03-19T04:57:31;49.50;;;22.23;;
70927;SDS011;58587;53.034;18.576;2023-03-19T04:59:57;50.42;;;23.02;;
70927;SDS011;58587;53.034;18.576;2023-03-19T05:02:23;51.57;;;23.13;;
70927;SDS011;58587;53.034;18.576;2023-03-19T05:04:48;50.40;;;21.67;;
70927;SDS011;58587;53.034;18.576;2023-03-19T05:07:13;47.47;;;20.93;;
70927;SDS011;58587;53.034;18.576;2023-03-19T05:09:39;51.73;;;22.13;;
70927;SDS011;58587;53.034;18.576;2023-03-19T05:12:04;44.05;;;21.05;;
70927;SDS011;58587;53.034;18.576;2023-03-19T05:14:30;44.53;;;19.93;;
70927;SDS011;58587;53.034;18.576;2023-03-19T05:16:56;46.08;;;20.50;;
70927;SDS011;58587;53.034;18.576;2023-03-19T05:19:21;51.70;;;21.50;;
70927;SDS011;58587;53.034;18.576;2023-03-19T05:21:47;45.23;;;19.50;;
70927;SDS011;58587;53.034;18.576;2023-03-19T05:24:12;44.03;;;20.13;;
70927;SDS011;58587;53.034;18.576;2023-03-19T05:26:37;49.22;;;20.67;;
70927;SDS011;58587;53.034;18.576;2023-03-19T05:29:03;47.00;;;21.95;;
70927;SDS011;58587;53.034;18.576;2023-03-19T05:31:28;49.10;;;21.57;;
70927;SDS011;58587;53.034;18.576;2023-03-19T05:33:54;50.93;;;22.10;;
70927;SDS011;58587;53.034;18.576;2023-03-19T05:36:19;52.37;;;21.33;;
70927;SDS011;58587;53.034;18.576;2023-03-19T05:38:45;46.33;;;21.60;;
70927;SDS011;58587;53.034;18.576;2023-03-19T05:41:10;45.37;;;20.50;;
70927;SDS011;58587;53.034;18.576;2023-03-19T05:43:35;46.67;;;20.30;;
70927;SDS011;58587;53.034;18.576;2023-03-19T05:46:01;43.13;;;20.20;;
70927;SDS011;58587;53.034;18.576;2023-03-19T05:48:27;44.28;;;19.58;;
70927;SDS011;58587;53.034;18.576;2023-03-19T05:50:52;46.00;;;20.03;;
70927;SDS011;58587;53.034;18.576;2023-03-19T05:53:18;42.17;;;19.43;;
70927;SDS011;58587;53.034;18.576;2023-03-19T05:55:44;44.58;;;19.83;;
70927;SDS011;58587;53.034;18.576;2023-03-19T05:58:09;41.23;;;19.13;;
70927;SDS011;58587;53.034;18.576;2023-03-19T06:00:35;48.25;;;20.10;;
70927;SDS011;58587;53.034;18.576;2023-03-19T06:03:01;44.63;;;19.60;;
70927;SDS011;58587;53.034;18.576;2023-03-19T06:05:26;44.90;;;19.60;;
70927;SDS011;58587;53.034;18.576;2023-03-19T06:07:52;46.53;;;20.10;;
70927;SDS011;58587;53.034;18.576;2023-03-19T06:10:17;39.47;;;18.50;;
70927;SDS011;58587;53.034;18.576;2023-03-19T06:12:42;39.67;;;18.33;;
70927;SDS011;58587;53.034;18.576;2023-03-19T06:15:08;42.57;;;19.50;;
70927;SDS011;58587;53.034;18.576;2023-03-19T06:17:34;41.17;;;18.83;;
70927;SDS011;58587;53.034;18.576;2023-03-19T06:20:00;46.05;;;21.15;;
70927;SDS011;58587;53.034;18.576;2023-03-19T06:22:25;42.05;;;20.42;;
70927;SDS011;58587;53.034;18.576;2023-03-19T06:24:51;44.00;;;20.47;;
70927;SDS011;58587;53.034;18.576;2023-03-19T06:27:16;39.73;;;18.73;;
70927;SDS011;58587;53.034;18.576;2023-03-19T06:29:42;43.53;;;20.15;;
70927;SDS011;58587;53.034;18.576;2023-03-19T06:32:07;38.55;;;19.15;;
70927;SDS011;58587;53.034;18.576;2023-03-19T06:34:33;55.20;;;25.83;;
70927;SDS011;58587;53.034;18.576;2023-03-19T06:36:59;49.25;;;21.55;;
70927;SDS011;58587;53.034;18.576;2023-03-19T06:39:24;45.63;;;23.03;;
70927;SDS011;58587;53.034;18.576;2023-03-19T06:41:49;44.70;;;20.03;;
70927;SDS011;58587;53.034;18.576;2023-03-19T06:44:15;41.47;;;20.48;;
70927;SDS011;58587;53.034;18.576;2023-03-19T06:46:41;51.97;;;24.08;;
70927;SDS011;58587;53.034;18.576;2023-03-19T06:49:06;46.23;;;21.30;;
70927;SDS011;58587;53.034;18.576;2023-03-19T06:51:31;45.93;;;20.50;;
70927;SDS011;58587;53.034;18.576;2023-03-19T06:53:57;45.37;;;21.50;;
70927;SDS011;58587;53.034;18.576;2023-03-19T06:56:22;45.72;;;20.38;;
70927;SDS011;58587;53.034;18.576;2023-03-19T06:58:48;73.00;;;35.50;;
70927;SDS011;58587;53.034;18.576;2023-03-19T07:01:13;61.07;;;28.97;;
70927;SDS011;58587;53.034;18.576;2023-03-19T07:03:38;56.30;;;25.47;;
70927;SDS011;58587;53.034;18.576;2023-03-19T07:06:04;38.57;;;18.43;;
70927;SDS011;58587;53.034;18.576;2023-03-19T07:08:29;38.65;;;18.25;;
70927;SDS011;58587;53.034;18.576;2023-03-19T07:10:55;41.67;;;20.23;;
70927;SDS011;58587;53.034;18.576;2023-03-19T07:13:21;39.03;;;19.67;;
70927;SDS011;58587;53.034;18.576;2023-03-19T07:15:46;43.57;;;21.70;;
70927;SDS011;58587;53.034;18.576;2023-03-19T07:18:12;41.70;;;20.70;;
70927;SDS011;58587;53.034;18.576;2023-03-19T07:20:37;41.53;;;19.47;;
70927;SDS011;58587;53.034;18.576;2023-03-19T07:23:02;46.53;;;23.15;;
70927;SDS011;58587;53.034;18.576;2023-03-19T07:25:28;43.07;;;18.57;;
70927;SDS011;58587;53.034;18.576;2023-03-19T07:27:53;40.53;;;18.73;;
70927;SDS011;58587;53.034;18.576;2023-03-19T07:30:18;41.53;;;19.47;;
70927;SDS011;58587;53.034;18.576;2023-03-19T07:32:44;38.30;;;18.90;;
70927;SDS011;58587;53.034;18.576;2023-03-19T07:35:09;42.47;;;18.87;;
70927;SDS011;58587;53.034;18.576;2023-03-19T07:37:35;53.72;;;27.20;;
70927;SDS011;58587;53.034;18.576;2023-03-19T07:40:01;45.43;;;22.93;;
70927;SDS011;58587;53.034;18.576;2023-03-19T07:42:27;48.53;;;23.63;;
70927;SDS011;58587;53.034;18.576;2023-03-19T07:44:52;45.40;;;21.27;;
70927;SDS011;58587;53.034;18.576;2023-03-19T07:47:18;38.35;;;18.98;;
70927;SDS011;58587;53.034;18.576;2023-03-19T07:49:43;50.33;;;24.00;;
70927;SDS011;58587;53.034;18.576;2023-03-19T07:52:09;44.53;;;21.58;;
70927;SDS011;58587;53.034;18.576;2023-03-19T07:54:38;45.00;;;23.15;;
70927;SDS011;58587;53.034;18.576;2023-03-19T07:57:04;45.55;;;21.85;;
70927;SDS011;58587;53.034;18.576;2023-03-19T07:59:30;45.63;;;22.02;;
70927;SDS011;58587;53.034;18.576;2023-03-19T08:01:55;44.13;;;22.33;;
70927;SDS011;58587;53.034;18.576;2023-03-19T08:04:21;44.73;;;22.00;;
70927;SDS011;58587;53.034;18.576;2023-03-19T08:06:46;41.23;;;21.67;;
70927;SDS011;58587;53.034;18.576;2023-03-19T08:09:12;42.67;;;20.70;;
70927;SDS011;58587;53.034;18.576;2023-03-19T08:11:37;42.78;;;20.90;;
70927;SDS011;58587;53.034;18.576;2023-03-19T08:14:02;55.47;;;23.38;;
70927;SDS011;58587;53.034;18.576;2023-03-19T08:16:28;49.83;;;22.53;;
70927;SDS011;58587;53.034;18.576;2023-03-19T08:18:53;47.33;;;20.83;;
70927;SDS011;58587;53.034;18.576;2023-03-19T08:21:19;49.83;;;23.60;;
70927;SDS011;58587;53.034;18.576;2023-03-19T08:23:44;39.13;;;18.70;;
70927;SDS011;58587;53.034;18.576;2023-03-19T08:26:10;42.90;;;19.67;;
70927;SDS011;58587;53.034;18.576;2023-03-19T08:28:35;39.55;;;19.70;;
70927;SDS011;58587;53.034;18.576;2023-03-19T08:31:06;41.05;;;20.23;;
70927;SDS011;58587;53.034;18.576;2023-03-19T08:33:32;40.95;;;22.08;;
70927;SDS011;58587;53.034;18.576;2023-03-19T08:36:05;40.70;;;20.53;;
70927;SDS011;58587;53.034;18.576;2023-03-19T08:38:35;43.50;;;21.75;;
70927;SDS011;58587;53.034;18.576;2023-03-19T08:41:01;41.63;;;21.35;;
70927;SDS011;58587;53.034;18.576;2023-03-19T08:43:28;39.78;;;20.63;;
70927;SDS011;58587;53.034;18.576;2023-03-19T08:45:55;41.45;;;20.88;;
70927;SDS011;58587;53.034;18.576;2023-03-19T08:48:20;43.67;;;20.80;;
70927;SDS011;58587;53.034;18.576;2023-03-19T08:50:50;61.40;;;31.77;;
70927;SDS011;58587;53.034;18.576;2023-03-19T08:53:17;47.85;;;23.92;;
70927;SDS011;58587;53.034;18.576;2023-03-19T08:55:42;53.07;;;26.00;;
70927;SDS011;58587;53.034;18.576;2023-03-19T08:58:08;43.97;;;20.57;;
70927;SDS011;58587;53.034;18.576;2023-03-19T09:00:33;36.78;;;17.80;;
70927;SDS011;58587;53.034;18.576;2023-03-19T09:02:59;40.13;;;19.53;;
70927;SDS011;58587;53.034;18.576;2023-03-19T09:05:24;35.17;;;17.57;;
70927;SDS011;58587;53.034;18.576;2023-03-19T09:07:50;39.97;;;20.27;;
70927;SDS011;58587;53.034;18.576;2023-03-19T09:10:16;42.08;;;21.70;;
70927;SDS011;58587;53.034;18.576;2023-03-19T09:12:42;44.77;;;22.63;;
70927;SDS011;58587;53.034;18.576;2023-03-19T09:15:07;69.33;;;30.90;;
70927;SDS011;58587;53.034;18.576;2023-03-19T09:17:33;45.78;;;22.58;;
70927;SDS011;58587;53.034;18.576;2023-03-19T09:19:59;43.30;;;21.23;;
70927;SDS011;58587;53.034;18.576;2023-03-19T09:22:24;48.10;;;23.70;;
70927;SDS011;58587;53.034;18.576;2023-03-19T09:24:50;39.35;;;20.58;;
70927;SDS011;58587;53.034;18.576;2023-03-19T09:27:16;39.00;;;18.60;;
70927;SDS011;58587;53.034;18.576;2023-03-19T09:29:42;32.22;;;16.83;;
70927;SDS011;58587;53.034;18.576;2023-03-19T09:32:08;34.63;;;17.80;;
70927;SDS011;58587;53.034;18.576;2023-03-19T09:34:33;39.67;;;20.33;;
70927;SDS011;58587;53.034;18.576;2023-03-19T09:36:59;41.30;;;20.77;;
70927;SDS011;58587;53.034;18.576;2023-03-19T09:39:24;31.53;;;16.47;;
70927;SDS011;58587;53.034;18.576;2023-03-19T09:41:56;31.23;;;17.67;;
70927;SDS011;58587;53.034;18.576;2023-03-19T09:44:31;36.10;;;17.17;;
70927;SDS011;58587;53.034;18.576;2023-03-19T09:49:49;38.38;;;20.38;;
70927;SDS011;58587;53.034;18.576;2023-03-19T09:52:22;34.60;;;18.52;;
70927;SDS011;58587;53.034;18.576;2023-03-19T09:55:19;28.63;;;15.90;;
70927;SDS011;58587;53.034;18.576;2023-03-19T09:57:52;29.17;;;15.77;;
70927;SDS011;58587;53.034;18.576;2023-03-19T10:00:24;38.78;;;22.40;;
70927;SDS011;58587;53.034;18.576;2023-03-19T10:03:19;26.42;;;15.20;;
70927;SDS011;58587;53.034;18.576;2023-03-19T10:14:28;31.60;;;18.10;;
70927;SDS011;58587;53.034;18.576;2023-03-19T10:17:00;29.05;;;17.40;;
70927;SDS011;58587;53.034;18.576;2023-03-19T10:19:39;37.08;;;20.40;;
70927;SDS011;58587;53.034;18.576;2023-03-19T10:22:18;32.67;;;16.40;;
70927;SDS011;58587;53.034;18.576;2023-03-19T10:24:56;33.67;;;16.70;;
70927;SDS011;58587;53.034;18.576;2023-03-19T10:27:24;37.80;;;20.15;;
70927;SDS011;58587;53.034;18.576;2023-03-19T10:29:52;31.02;;;17.23;;
70927;SDS011;58587;53.034;18.576;2023-03-19T10:35:15;50.30;;;32.97;;
70927;SDS011;58587;53.034;18.576;2023-03-19T10:37:43;30.63;;;15.63;;
70927;SDS011;58587;53.034;18.576;2023-03-19T10:40:33;24.77;;;12.77;;
70927;SDS011;58587;53.034;18.576;2023-03-19T10:43:15;25.85;;;13.77;;
70927;SDS011;58587;53.034;18.576;2023-03-19T10:45:44;25.40;;;14.60;;
70927;SDS011;58587;53.034;18.576;2023-03-19T10:48:15;28.03;;;15.53;;
70927;SDS011;58587;53.034;18.576;2023-03-19T10:50:44;23.63;;;13.13;;
70927;SDS011;58587;53.034;18.576;2023-03-19T10:53:34;21.98;;;12.00;;
70927;SDS011;58587;53.034;18.576;2023-03-19T10:58:28;23.00;;;11.75;;
70927;SDS011;58587;53.034;18.576;2023-03-19T11:00:57;23.77;;;13.10;;
70927;SDS011;58587;53.034;18.576;2023-03-19T11:06:23;21.27;;;12.02;;
70927;SDS011;58587;53.034;18.576;2023-03-19T11:11:31;20.48;;;11.10;;
70927;SDS011;58587;53.034;18.576;2023-03-19T11:14:07;33.30;;;16.47;;
70927;SDS011;58587;53.034;18.576;2023-03-19T11:17:43;21.58;;;11.20;;
70927;SDS011;58587;53.034;18.576;2023-03-19T11:19:40;18.85;;;10.77;;
70927;SDS011;58587;53.034;18.576;2023-03-19T11:22:09;22.55;;;12.13;;
70927;SDS011;58587;53.034;18.576;2023-03-19T11:24:41;20.13;;;11.75;;
70927;SDS011;58587;53.034;18.576;2023-03-19T11:27:12;30.87;;;15.57;;
70927;SDS011;58587;53.034;18.576;2023-03-19T11:29:39;21.30;;;11.10;;
70927;SDS011;58587;53.034;18.576;2023-03-19T11:32:12;32.78;;;17.55;;
70927;SDS011;58587;53.034;18.576;2023-03-19T11:34:58;20.70;;;12.02;;
70927;SDS011;58587;53.034;18.576;2023-03-19T11:40:11;21.48;;;11.63;;
70927;SDS011;58587;53.034;18.576;2023-03-19T11:42:49;22.27;;;12.40;;
70927;SDS011;58587;53.034;18.576;2023-03-19T11:45:37;23.77;;;11.80;;
70927;SDS011;58587;53.034;18.576;2023-03-19T11:50:59;22.40;;;11.52;;
70927;SDS011;58587;53.034;18.576;2023-03-19T12:04:46;23.58;;;13.15;;
70927;SDS011;58587;53.034;18.576;2023-03-19T12:13:26;22.00;;;11.20;;
70927;SDS011;58587;53.034;18.576;2023-03-19T12:21:29;19.73;;;11.90;;
70927;SDS011;58587;53.034;18.576;2023-03-19T12:29:40;24.73;;;12.95;;
70927;SDS011;58587;53.034;18.576;2023-03-19T12:34:47;22.45;;;13.07;;
70927;SDS011;58587;53.034;18.576;2023-03-19T12:37:37;22.40;;;12.63;;
70927;SDS011;58587;53.034;18.576;2023-03-19T12:42:54;28.00;;;14.32;;
70927;SDS011;58587;53.034;18.576;2023-03-19T12:45:27;24.50;;;13.65;;
70927;SDS011;58587;53.034;18.576;2023-03-19T12:48:04;24.10;;;13.25;;
70927;SDS011;58587;53.034;18.576;2023-03-19T12:51:04;25.70;;;14.20;;
70927;SDS011;58587;53.034;18.576;2023-03-19T12:53:42;24.27;;;14.13;;
70927;SDS011;58587;53.034;18.576;2023-03-19T12:56:13;28.45;;;15.20;;
70927;SDS011;58587;53.034;18.576;2023-03-19T13:01:36;26.75;;;15.07;;
70927;SDS011;58587;53.034;18.576;2023-03-19T13:04:17;26.63;;;14.07;;
70927;SDS011;58587;53.034;18.576;2023-03-19T13:07:07;33.00;;;14.10;;
70927;SDS011;58587;53.034;18.576;2023-03-19T13:09:44;29.45;;;15.30;;
70927;SDS011;58587;53.034;18.576;2023-03-19T13:12:20;23.08;;;14.15;;
70927;SDS011;58587;53.034;18.576;2023-03-19T13:17:25;24.27;;;14.13;;
70927;SDS011;58587;53.034;18.576;2023-03-19T13:19:58;26.52;;;14.43;;
70927;SDS011;58587;53.034;18.576;2023-03-19T13:22:30;23.13;;;13.65;;
70927;SDS011;58587;53.034;18.576;2023-03-19T13:24:59;25.30;;;14.63;;
70927;SDS011;58587;53.034;18.576;2023-03-19T13:27:29;24.25;;;13.18;;
70927;SDS011;58587;53.034;18.576;2023-03-19T13:29:58;24.20;;;13.57;;
70927;SDS011;58587;53.034;18.576;2023-03-19T13:32:49;23.58;;;14.50;;
70927;SDS011;58587;53.034;18.576;2023-03-19T13:37:46;25.10;;;13.50;;
70927;SDS011;58587;53.034;18.576;2023-03-19T13:43:19;27.43;;;14.90;;
70927;SDS011;58587;53.034;18.576;2023-03-19T13:45:50;26.52;;;15.07;;
70927;SDS011;58587;53.034;18.576;2023-03-19T13:48:33;26.02;;;14.27;;
70927;SDS011;58587;53.034;18.576;2023-03-19T13:55:59;32.80;;;15.40;;
70927;SDS011;58587;53.034;18.576;2023-03-19T13:58:28;27.10;;;15.20;;
70927;SDS011;58587;53.034;18.576;2023-03-19T14:04:01;36.15;;;20.50;;
70927;SDS011;58587;53.034;18.576;2023-03-19T14:06:38;30.52;;;17.17;;
70927;SDS011;58587;53.034;18.576;2023-03-19T14:09:26;45.30;;;23.97;;
70927;SDS011;58587;53.034;18.576;2023-03-19T14:12:09;88.07;;;60.10;;
70927;SDS011;58587;53.034;18.576;2023-03-19T14:14:39;75.45;;;53.75;;
70927;SDS011;58587;53.034;18.576;2023-03-19T14:17:21;32.42;;;16.77;;
70927;SDS011;58587;53.034;18.576;2023-03-19T14:20:03;30.98;;;17.20;;
70927;SDS011;58587;53.034;18.576;2023-03-19T14:23:09;42.60;;;25.43;;
70927;SDS011;58587;53.034;18.576;2023-03-19T14:28:30;31.98;;;19.35;;
70927;SDS011;58587;53.034;18.576;2023-03-19T14:31:03;28.05;;;16.02;;
70927;SDS011;58587;53.034;18.576;2023-03-19T14:36:13;79.07;;;45.00;;
70927;SDS011;58587;53.034;18.576;2023-03-19T14:38:48;39.08;;;22.10;;
70927;SDS011;58587;53.034;18.576;2023-03-19T14:41:17;46.40;;;23.92;;
70927;SDS011;58587;53.034;18.576;2023-03-19T14:46:37;30.75;;;16.00;;
70927;SDS011;58587;53.034;18.576;2023-03-19T14:54:49;59.97;;;30.15;;
70927;SDS011;58587;53.034;18.576;2023-03-19T14:57:18;82.03;;;42.25;;
70927;SDS011;58587;53.034;18.576;2023-03-19T14:59:46;104.60;;;58.45;;
70927;SDS011;58587;53.034;18.576;2023-03-19T15:02:29;65.50;;;35.67;;
70927;SDS011;58587;53.034;18.576;2023-03-19T15:05:02;47.20;;;25.58;;
70927;SDS011;58587;53.034;18.576;2023-03-19T15:07:33;34.75;;;18.40;;
70927;SDS011;58587;53.034;18.576;2023-03-19T15:10:04;45.83;;;28.67;;
70927;SDS011;58587;53.034;18.576;2023-03-19T15:12:40;36.95;;;22.10;;
70927;SDS011;58587;53.034;18.576;2023-03-19T15:15:26;32.40;;;18.97;;
70927;SDS011;58587;53.034;18.576;2023-03-19T15:17:59;29.23;;;17.55;;
70927;SDS011;58587;53.034;18.576;2023-03-19T15:20:27;31.52;;;16.52;;
70927;SDS011;58587;53.034;18.576;2023-03-19T15:23:00;30.17;;;16.50;;
70927;SDS011;58587;53.034;18.576;2023-03-19T15:25:29;28.75;;;15.70;;
70927;SDS011;58587;53.034;18.576;2023-03-19T15:28:05;28.97;;;15.50;;
70927;SDS011;58587;53.034;18.576;2023-03-19T15:30:32;34.35;;;19.20;;
70927;SDS011;58587;53.034;18.576;2023-03-19T15:32:58;36.07;;;21.23;;
70927;SDS011;58587;53.034;18.576;2023-03-19T15:35:29;67.47;;;42.97;;
70927;SDS011;58587;53.034;18.576;2023-03-19T15:37:58;61.70;;;38.63;;
70927;SDS011;58587;53.034;18.576;2023-03-19T15:40:26;47.35;;;27.42;;
70927;SDS011;58587;53.034;18.576;2023-03-19T15:42:54;53.33;;;28.13;;
70927;SDS011;58587;53.034;18.576;2023-03-19T15:45:23;74.82;;;50.60;;
70927;SDS011;58587;53.034;18.576;2023-03-19T15:47:52;46.38;;;29.52;;
70927;SDS011;58587;53.034;18.576;2023-03-19T15:50:22;64.88;;;44.60;;
70927;SDS011;58587;53.034;18.576;2023-03-19T15:52:56;41.88;;;25.52;;
70927;SDS011;58587;53.034;18.576;2023-03-19T15:55:24;44.90;;;29.27;;